createdAt,value
2022-12-15T00:01:34.149Z,5.1
2022-12-15T00:04:05.053Z,5.1
2022-12-15T00:06:35.741Z,5.1
2022-12-15T00:09:11.203Z,5.2
2022-12-15T00:11:37.322Z,5.2
2022-12-15T00:14:08.184Z,5.2
2022-12-15T00:16:38.604Z,5.1
2022-12-15T00:19:09.526Z,5.1
2022-12-15T00:21:39.740Z,5.2
2022-12-15T00:24:11.097Z,5.1
2022-12-15T00:26:41.771Z,5.2
2022-12-15T00:29:12.548Z,5.2
2022-12-15T00:31:43.976Z,5.1
2022-12-15T00:34:14.979Z,5.1
2022-12-15T00:36:45.916Z,5.2
2022-12-15T00:39:17.058Z,5.2
2022-12-15T00:41:47.498Z,5.2
2022-12-15T00:44:20.694Z,5.1
2022-12-15T00:46:49.411Z,5
2022-12-15T00:49:20.173Z,5
2022-12-15T00:51:51.893Z,5
2022-12-15T00:54:23.010Z,4.9
2022-12-15T00:56:54.849Z,5
2022-12-15T00:59:26.582Z,5.2
2022-12-15T01:01:58.123Z,5.2
2022-12-15T01:04:28.005Z,5.2
2022-12-15T01:06:58.821Z,5.1
2022-12-15T01:09:30.952Z,5.3
2022-12-15T01:12:03.214Z,5.2
2022-12-15T01:14:34.204Z,5.3
2022-12-15T01:17:05.812Z,5.3
2022-12-15T01:19:36.287Z,5.4
2022-12-15T01:22:07.430Z,5.4
2022-12-15T01:24:38.172Z,5.4
2022-12-15T01:27:08.512Z,5.4
2022-12-15T01:29:39.108Z,5.4
2022-12-15T01:32:10.352Z,5.4
2022-12-15T01:34:41.891Z,5.4
2022-12-15T01:37:12.941Z,5.4
2022-12-15T01:39:43.833Z,5.4
2022-12-15T01:42:14.782Z,5.5
2022-12-15T01:44:45.784Z,5.5
2022-12-15T01:47:16.965Z,5.5
2022-12-15T01:49:46.997Z,5.5
2022-12-15T01:52:17.418Z,5.4
2022-12-15T01:54:48.980Z,5.3
2022-12-15T01:57:19.886Z,5.3
2022-12-15T01:59:50.713Z,5.2
2022-12-15T02:02:21.581Z,5.3
2022-12-15T02:04:52.323Z,5.2
2022-12-15T02:07:21.635Z,5.2
2022-12-15T02:09:52.777Z,5.2
2022-12-15T02:12:24.860Z,5.3
2022-12-15T02:14:56.183Z,5.3
2022-12-15T02:17:27.020Z,5.3
2022-12-15T02:19:57.673Z,5.2
2022-12-15T02:22:28.903Z,5.3
2022-12-15T02:24:59.621Z,5.3
2022-12-15T02:27:31.790Z,5.1
2022-12-15T02:30:02.194Z,5.2
2022-12-15T02:32:33.419Z,5.1
2022-12-15T02:35:05.111Z,5.1
2022-12-15T02:37:35.914Z,5.2
2022-12-15T02:40:06.835Z,5.3
2022-12-15T02:42:37.778Z,5.1
2022-12-15T02:45:06.729Z,5
2022-12-15T02:47:37.850Z,5.1
2022-12-15T02:50:08.700Z,5.1
2022-12-15T02:52:39.569Z,5.1
2022-12-15T02:55:10.420Z,5.1
2022-12-15T02:57:41.275Z,5.2
2022-12-15T03:00:12.525Z,5.1
2022-12-15T03:02:43.301Z,5.1
2022-12-15T03:05:13.835Z,5
2022-12-15T03:07:44.398Z,5
2022-12-15T03:10:17.065Z,5.1
2022-12-15T03:12:47.956Z,5.1
2022-12-15T03:15:18.726Z,5.1
2022-12-15T03:17:49.340Z,5.1
2022-12-15T03:20:20.509Z,5
2022-12-15T03:22:51.441Z,5.2
2022-12-15T03:25:22.316Z,5.2
2022-12-15T03:27:51.656Z,5.2
2022-12-15T03:30:23.664Z,5.2
2022-12-15T03:32:54.277Z,5.2
2022-12-15T03:35:26.897Z,5.1
2022-12-15T03:38:01.785Z,5.1
2022-12-15T03:40:33.171Z,5.2
2022-12-15T03:43:03.842Z,5.2
2022-12-15T03:45:35.743Z,5.1
2022-12-15T03:48:07.119Z,5.2
2022-12-15T03:50:38.309Z,5.2
2022-12-15T03:53:09.234Z,5.3
2022-12-15T03:55:39.620Z,5.3
2022-12-15T03:58:10.751Z,5.2
2022-12-15T04:00:42.145Z,5.3
2022-12-15T04:03:13.100Z,5.3
2022-12-15T04:05:45.863Z,5.3
2022-12-15T04:08:16.568Z,5.2
2022-12-15T04:10:48.257Z,5.3
2022-12-15T04:13:19.057Z,5.3
2022-12-15T04:15:51.915Z,5.3
2022-12-15T04:18:23.020Z,5.3
2022-12-15T04:20:54.236Z,5.3
2022-12-15T04:23:26.003Z,5.3
2022-12-15T04:25:58.090Z,5.4
2022-12-15T04:28:28.843Z,5.4
2022-12-15T04:30:59.515Z,5.3
2022-12-15T04:33:32.856Z,5.3
2022-12-15T04:36:03.571Z,5.3
2022-12-15T04:38:34.274Z,5.2
2022-12-15T04:41:04.831Z,5.2
2022-12-15T04:43:35.634Z,5.2
2022-12-15T04:46:06.863Z,5.2
2022-12-15T04:48:37.869Z,5.2
2022-12-15T04:51:08.638Z,5.2
2022-12-15T04:53:43.793Z,5.3
2022-12-15T04:56:18.570Z,5.3
2022-12-15T04:58:46.681Z,5.3
2022-12-15T05:01:18.108Z,5.3
2022-12-15T05:03:49.344Z,5.3
2022-12-15T05:06:20.177Z,5.4
2022-12-15T05:08:50.526Z,5.4
2022-12-15T05:11:22.807Z,5.4
2022-12-15T05:13:54.090Z,5.4
2022-12-15T05:16:25.382Z,5.4
2022-12-15T05:18:56.018Z,5.4
2022-12-15T05:21:27.025Z,5.3
2022-12-15T05:23:58.138Z,5.3
2022-12-15T05:26:28.986Z,5.4
2022-12-15T05:28:59.561Z,5.3
2022-12-15T05:31:31.641Z,5.3
2022-12-15T05:34:05.638Z,5.2
2022-12-15T05:36:33.716Z,5.3
2022-12-15T05:39:04.219Z,5.3
2022-12-15T05:41:35.641Z,5.3
2022-12-15T05:44:06.037Z,5.3
2022-12-15T05:46:37.305Z,5.4
2022-12-15T05:49:08.379Z,5.3
2022-12-15T05:51:39.402Z,5.3
2022-12-15T05:54:10.663Z,5.4
2022-12-15T05:56:42.350Z,5.3
2022-12-15T05:59:16.890Z,5.2
2022-12-15T06:01:48.550Z,5.2
2022-12-15T06:04:20.400Z,5.2
2022-12-15T06:06:51.704Z,5.2
2022-12-15T06:09:22.900Z,5
2022-12-15T06:11:53.306Z,5.1
2022-12-15T06:14:22.384Z,5.2
2022-12-15T06:16:55.065Z,5.1
2022-12-15T06:19:27.070Z,5
2022-12-15T06:21:59.477Z,5.1
2022-12-15T06:24:30.639Z,5.1
2022-12-15T06:27:01.808Z,5.2
2022-12-15T06:29:33.094Z,5.2
2022-12-15T06:32:04.019Z,5.2
2022-12-15T06:34:34.734Z,5.3
2022-12-15T06:37:05.288Z,5.4
2022-12-15T06:39:36.277Z,5.4
2022-12-15T06:42:07.021Z,5.3
2022-12-15T06:44:37.863Z,5.4
2022-12-15T06:47:09.353Z,5.5
2022-12-15T06:49:40.209Z,5.6
2022-12-15T06:52:11.266Z,5.6
2022-12-15T06:54:42.031Z,5.8
2022-12-15T06:57:13.209Z,5.8
2022-12-15T06:59:47.819Z,5.7
2022-12-15T07:02:22.416Z,5.8
2022-12-15T07:04:48.786Z,6
2022-12-15T07:07:21.002Z,6
2022-12-15T07:09:51.629Z,6.1
2022-12-15T07:12:22.351Z,6.1
2022-12-15T07:14:53.890Z,6.2
2022-12-15T07:17:23.995Z,6.3
2022-12-15T07:19:54.510Z,6.4
2022-12-15T07:22:25.235Z,6.4
2022-12-15T07:24:55.667Z,6.5
2022-12-15T07:27:26.104Z,6.6
2022-12-15T07:29:56.727Z,6.6
2022-12-15T07:32:26.791Z,6.7
2022-12-15T07:34:57.612Z,6.6
2022-12-15T07:37:29.017Z,6.7
2022-12-15T07:39:59.955Z,6.7
2022-12-15T07:42:30.466Z,6.7
2022-12-15T07:45:00.609Z,6.8
2022-12-15T07:47:32.762Z,6.8
2022-12-15T07:50:03.164Z,6.8
2022-12-15T07:52:35.223Z,6.9
2022-12-15T07:55:05.853Z,6.9
2022-12-15T07:57:38.292Z,6.8
2022-12-15T08:00:11.623Z,7.1
2022-12-15T08:02:42.754Z,7.1
2022-12-15T08:05:13.226Z,7.1
2022-12-15T08:07:44.043Z,7.2
2022-12-15T08:10:14.677Z,7.4
2022-12-15T08:12:44.973Z,7.5
2022-12-15T08:15:15.984Z,7.6
2022-12-15T08:17:46.466Z,7.6
2022-12-15T08:20:17.329Z,7.5
2022-12-15T08:22:49.966Z,7.7
2022-12-15T08:25:20.474Z,7.7
2022-12-15T08:27:51.082Z,7.7
2022-12-15T08:30:22.305Z,7.8
2022-12-15T08:32:53.096Z,7.9
2022-12-15T08:35:47.281Z,7.9
2022-12-15T08:37:53.752Z,8.1
2022-12-15T08:40:24.736Z,8.1
2022-12-15T08:42:55.369Z,8
2022-12-15T08:45:24.491Z,8.1
2022-12-15T08:47:55.174Z,8.1
2022-12-15T08:50:25.798Z,8.3
2022-12-15T08:53:21.726Z,8.3
2022-12-15T08:55:28.006Z,8.3
2022-12-15T08:57:59.458Z,8.4
2022-12-15T09:00:30.724Z,8.5
2022-12-15T09:03:01.876Z,8.5
2022-12-15T09:05:33.653Z,8.6
2022-12-15T09:08:06.653Z,8.7
2022-12-15T09:10:36.018Z,8.7
2022-12-15T09:13:06.587Z,8.8
2022-12-15T09:16:07.443Z,8.8
2022-12-15T09:18:12.418Z,8.9
2022-12-15T09:20:44.175Z,8.9
2022-12-15T09:23:15.369Z,9
2022-12-15T09:25:45.875Z,9.1
2022-12-15T09:28:17.626Z,9
2022-12-15T09:30:49.256Z,9.1
2022-12-15T09:33:20.638Z,9.2
2022-12-15T09:35:51.105Z,9.3
2022-12-15T09:38:21.855Z,9.3
2022-12-15T09:40:52.321Z,9.4
2022-12-15T09:43:41.540Z,9.4
2022-12-15T09:45:53.234Z,9.4
2022-12-15T09:48:23.526Z,9.5
2022-12-15T09:50:55.536Z,9.6
2022-12-15T09:53:53.969Z,9.7
2022-12-15T09:55:59.184Z,9.8
2022-12-15T09:58:31.139Z,9.8
2022-12-15T10:01:01.916Z,9.8
2022-12-15T10:03:33.319Z,9.9
2022-12-15T10:06:21.054Z,9.9
2022-12-15T10:08:34.604Z,9.9
2022-12-15T10:11:05.165Z,10
2022-12-15T10:13:35.769Z,9.9
2022-12-15T10:16:06.526Z,10.1
2022-12-15T10:18:37.279Z,10.2
2022-12-15T10:21:07.804Z,10.3
2022-12-15T10:23:38.382Z,10.4
2022-12-15T10:26:08.866Z,10.4
2022-12-15T10:28:39.064Z,10.5
2022-12-15T10:31:10.192Z,10.6
2022-12-15T10:33:47.000Z,10.6
2022-12-15T10:36:13.586Z,10.7
2022-12-15T10:38:44.614Z,10.8
2022-12-15T10:41:15.352Z,10.9
2022-12-15T10:43:47.495Z,10.9
2022-12-15T10:46:18.098Z,10.9
2022-12-15T10:48:49.201Z,11
2022-12-15T10:51:19.645Z,11
2022-12-15T10:53:50.370Z,11.2
2022-12-15T10:56:18.793Z,11.2
2022-12-15T10:58:50.105Z,11.2
2022-12-15T11:01:19.926Z,11.3
2022-12-15T11:03:50.870Z,11.3
2022-12-15T11:06:22.270Z,11.3
2022-12-15T11:08:54.114Z,11.4
2022-12-15T11:11:27.672Z,11.4
2022-12-15T11:13:54.995Z,11.5
2022-12-15T11:16:25.690Z,11.6
2022-12-15T11:18:56.638Z,11.6
2022-12-15T11:21:27.518Z,11.7
2022-12-15T11:23:58.044Z,11.6
2022-12-15T11:26:28.302Z,11.7
2022-12-15T11:28:59.327Z,11.7
2022-12-15T11:31:35.851Z,11.7
2022-12-15T11:34:06.535Z,11.9
2022-12-15T11:36:39.018Z,11.9
2022-12-15T11:39:10.228Z,12
2022-12-15T11:41:41.977Z,12.1
2022-12-15T11:44:12.148Z,12.1
2022-12-15T11:46:45.623Z,12.2
2022-12-15T11:49:16.713Z,12.3
2022-12-15T11:51:47.682Z,12.3
2022-12-15T11:54:18.636Z,12.4
2022-12-15T11:56:49.331Z,12.4
2022-12-15T11:59:20.561Z,12.5
2022-12-15T12:01:55.622Z,12.5
2022-12-15T12:04:22.078Z,12.5
2022-12-15T12:06:53.252Z,12.5
2022-12-15T12:09:24.398Z,12.6
2022-12-15T12:11:54.834Z,12.6
2022-12-15T12:14:25.065Z,12.6
2022-12-15T12:16:55.607Z,12.6
2022-12-15T12:19:27.914Z,12.7
2022-12-15T12:21:58.769Z,12.7
2022-12-15T12:24:29.490Z,12.8
2022-12-15T12:27:00.133Z,12.7
2022-12-15T12:29:30.930Z,12.9
2022-12-15T12:32:04.715Z,12.9
2022-12-15T12:34:31.736Z,12.9
2022-12-15T12:37:02.659Z,13
2022-12-15T12:39:34.730Z,13
2022-12-15T12:42:05.318Z,13
2022-12-15T12:44:35.897Z,13
2022-12-15T12:47:07.278Z,13.1
2022-12-15T12:49:39.248Z,13.1
2022-12-15T12:52:11.204Z,13.1
2022-12-15T12:54:42.293Z,13.1
2022-12-15T12:57:13.860Z,13.2
2022-12-15T12:59:44.647Z,13.2
2022-12-15T13:02:16.272Z,13.2
2022-12-15T13:04:46.931Z,13.2
2022-12-15T13:07:19.649Z,13.1
2022-12-15T13:09:51.576Z,13.1
2022-12-15T13:12:50.424Z,13
2022-12-15T13:14:53.250Z,13
2022-12-15T13:17:26.853Z,13
2022-12-15T13:19:56.326Z,12.9
2022-12-15T13:22:27.654Z,12.9
2022-12-15T13:25:00.202Z,12.8
2022-12-15T13:27:33.192Z,12.8
2022-12-15T13:30:04.626Z,12.8
2022-12-15T13:32:36.363Z,12.8
2022-12-15T13:35:06.841Z,12.7
2022-12-15T13:37:37.976Z,12.8
2022-12-15T13:40:09.000Z,12.8
2022-12-15T13:42:52.806Z,12.9
2022-12-15T13:45:12.200Z,12.8
2022-12-15T13:47:44.228Z,12.8
2022-12-15T13:50:16.762Z,12.8
2022-12-15T13:55:24.176Z,12.8
2022-12-15T13:57:50.805Z,12.8
2022-12-15T14:00:22.280Z,12.8
2022-12-15T14:02:53.763Z,12.6
2022-12-15T14:05:25.201Z,12.6
2022-12-15T14:07:56.702Z,12.5
2022-12-15T14:10:27.816Z,12.6
2022-12-15T14:12:59.126Z,12.4
2022-12-15T14:15:30.410Z,12.5
2022-12-15T14:18:01.331Z,12.4
2022-12-15T14:20:32.594Z,12.3
2022-12-15T14:23:04.295Z,12.4
2022-12-15T14:25:37.509Z,12.3
2022-12-15T14:28:12.157Z,12.3
2022-12-15T14:30:41.922Z,12.2
2022-12-15T14:33:13.219Z,12.2
2022-12-15T14:35:49.396Z,12.2
2022-12-15T14:38:17.710Z,12.1
2022-12-15T14:40:49.813Z,12.1
2022-12-15T14:43:21.285Z,12.1
2022-12-15T14:45:52.409Z,12.1
2022-12-15T14:48:40.856Z,12
2022-12-15T14:50:56.143Z,11.9
2022-12-15T14:53:27.539Z,11.9
2022-12-15T14:55:59.385Z,11.8
2022-12-15T14:58:31.794Z,11.7
2022-12-15T15:01:02.322Z,11.7
2022-12-15T15:03:34.213Z,11.7
2022-12-15T15:06:05.746Z,11.6
2022-12-15T15:08:37.485Z,11.6
2022-12-15T15:11:07.005Z,11.6
2022-12-15T15:13:39.926Z,11.5
2022-12-15T15:16:11.019Z,11.5
2022-12-15T15:18:42.521Z,11.5
2022-12-15T15:21:15.343Z,11.5
2022-12-15T15:23:47.089Z,11.4
2022-12-15T15:26:18.324Z,11.3
2022-12-15T15:28:49.681Z,11.2
2022-12-15T15:31:21.608Z,11.1
2022-12-15T15:33:53.039Z,11.1
2022-12-15T15:36:24.643Z,11.1
2022-12-15T15:38:56.426Z,11.1
2022-12-15T15:41:27.462Z,11.1
2022-12-15T15:43:59.611Z,11.1
2022-12-15T15:46:30.743Z,11.1
2022-12-15T15:49:02.060Z,10.9
2022-12-15T15:51:33.499Z,10.8
2022-12-15T15:54:04.935Z,10.8
2022-12-15T15:56:36.072Z,10.8
2022-12-15T15:59:09.235Z,10.8
2022-12-15T16:01:39.743Z,10.8
2022-12-15T16:04:11.464Z,10.8
2022-12-15T16:06:47.207Z,10.7
2022-12-15T16:09:14.355Z,10.6
2022-12-15T16:11:47.023Z,10.6
2022-12-15T16:14:19.782Z,10.6
2022-12-15T16:16:50.674Z,10.6
2022-12-15T16:19:22.106Z,10.6
2022-12-15T16:21:54.366Z,10.5
2022-12-15T16:24:25.649Z,10.5
2022-12-15T16:26:56.559Z,10.4
2022-12-15T16:29:30.702Z,10.5
2022-12-15T16:32:02.755Z,10.4
2022-12-15T16:34:34.755Z,10.4
2022-12-15T16:37:06.757Z,10.5
2022-12-15T16:39:39.947Z,10.4
2022-12-15T16:42:11.692Z,10.4
2022-12-15T16:44:42.674Z,10.4
2022-12-15T16:47:14.351Z,10.3
2022-12-15T16:49:45.587Z,10.2
2022-12-15T16:52:16.432Z,10.2
2022-12-15T16:54:47.722Z,10.2
2022-12-15T16:57:20.196Z,10.3
2022-12-15T16:59:51.882Z,10.3
2022-12-15T17:02:24.472Z,10.3
2022-12-15T17:04:55.913Z,10.2
2022-12-15T17:07:27.285Z,10.2
2022-12-15T17:09:59.063Z,10.1
2022-12-15T17:12:31.715Z,10.1
2022-12-15T17:15:03.244Z,10.1
2022-12-15T17:17:34.563Z,10
2022-12-15T17:22:37.953Z,10
2022-12-15T17:25:09.123Z,10
2022-12-15T17:27:40.437Z,10
2022-12-15T17:30:11.716Z,9.9
2022-12-15T17:32:42.595Z,9.9
2022-12-15T17:35:14.797Z,9.9
2022-12-15T17:37:46.216Z,9.8
2022-12-15T17:40:20.331Z,9.7
2022-12-15T17:42:51.692Z,9.8
2022-12-15T17:45:24.214Z,9.7
2022-12-15T17:47:56.080Z,9.7
2022-12-15T17:50:27.250Z,9.7
2022-12-15T17:52:59.356Z,9.6
2022-12-15T17:55:34.929Z,9.5
2022-12-15T17:58:03.029Z,9.5
2022-12-15T18:00:34.682Z,9.5
2022-12-15T18:03:08.111Z,9.5
2022-12-15T18:05:40.135Z,9.5
2022-12-15T18:08:11.718Z,9.5
2022-12-15T18:10:42.819Z,9.5
2022-12-15T18:13:14.522Z,9.4
2022-12-15T18:15:45.600Z,9.4
2022-12-15T18:18:16.527Z,9.4
2022-12-15T18:20:47.821Z,9.4
2022-12-15T18:23:19.576Z,9.4
2022-12-15T18:25:50.951Z,9.3
2022-12-15T18:28:21.964Z,9.2
2022-12-15T18:30:53.096Z,9.1
2022-12-15T18:33:27.174Z,9.1
2022-12-15T18:36:00.373Z,9.1
2022-12-15T18:38:31.959Z,9.1
2022-12-15T18:41:03.354Z,9.1
2022-12-15T18:43:35.829Z,9
2022-12-15T18:46:07.303Z,9
2022-12-15T18:48:38.574Z,9
2022-12-15T18:51:10.616Z,9
2022-12-15T18:53:42.360Z,9
2022-12-15T18:56:12.079Z,9
2022-12-15T18:58:45.331Z,8.9
2022-12-15T19:01:16.994Z,8.8
2022-12-15T19:03:49.097Z,8.9
2022-12-15T19:06:25.420Z,8.8
2022-12-15T19:08:51.535Z,8.9
2022-12-15T19:11:23.645Z,8.8
2022-12-15T19:13:54.514Z,8.6
2022-12-15T19:16:25.674Z,8.8
2022-12-15T19:18:57.080Z,8.7
2022-12-15T19:21:27.910Z,8.7
2022-12-15T19:24:00.117Z,8.6
2022-12-15T19:26:31.526Z,8.6
2022-12-15T19:29:00.921Z,8.6
2022-12-15T19:31:32.328Z,8.5
2022-12-15T19:34:03.824Z,8.5
2022-12-15T19:36:36.786Z,8.5
2022-12-15T19:39:06.174Z,8.5
2022-12-15T19:41:37.992Z,8.5
2022-12-15T19:44:09.154Z,8.6
2022-12-15T19:46:41.151Z,8.6
2022-12-15T19:49:13.022Z,8.7
2022-12-15T19:51:44.631Z,8.8
2022-12-15T19:54:17.546Z,8.9
2022-12-15T19:56:48.882Z,8.9
2022-12-15T19:59:20.796Z,8.9
2022-12-15T20:01:52.214Z,8.9
2022-12-15T20:04:24.423Z,9
2022-12-15T20:06:54.914Z,9
2022-12-15T20:09:25.973Z,9
2022-12-15T20:11:57.175Z,8.9
2022-12-15T20:14:30.219Z,9
2022-12-15T20:17:01.648Z,8.9
2022-12-15T20:19:32.902Z,8.8
2022-12-15T20:22:05.366Z,8.8
2022-12-15T20:24:37.353Z,8.8
2022-12-15T20:27:11.717Z,8.8
2022-12-15T20:29:39.873Z,8.9
2022-12-15T20:32:12.297Z,9
2022-12-15T20:34:47.286Z,9
2022-12-15T20:37:19.924Z,9
2022-12-15T20:39:57.098Z,9.1
2022-12-15T20:42:23.967Z,9.2
2022-12-15T20:44:56.345Z,9.1
2022-12-15T20:47:27.599Z,9.2
2022-12-15T20:50:04.170Z,9.3
2022-12-15T20:52:38.442Z,9.3
2022-12-15T20:55:09.827Z,9.5
2022-12-15T20:57:42.008Z,9.5
2022-12-15T21:00:19.790Z,9.6
2022-12-15T21:02:51.856Z,9.6
2022-12-15T21:05:23.786Z,9.7
2022-12-15T21:07:56.102Z,9.8
2022-12-15T21:10:27.586Z,9.9
2022-12-15T21:12:57.408Z,9.9
2022-12-15T21:15:30.882Z,9.9
2022-12-15T21:18:40.565Z,10.1
2022-12-15T21:20:34.648Z,10.2
2022-12-15T21:23:06.288Z,10.3
2022-12-15T21:25:37.677Z,10.4
2022-12-15T21:28:09.049Z,10.6
2022-12-15T21:30:40.175Z,10.6
2022-12-15T21:33:11.746Z,10.7
2022-12-15T21:35:44.000Z,10.8
2022-12-15T21:38:18.738Z,10.8
2022-12-15T21:40:54.572Z,10.9
2022-12-15T21:43:22.552Z,10.9
2022-12-15T21:45:54.283Z,11
2022-12-15T21:48:31.727Z,11.1
2022-12-15T21:51:03.166Z,11.2
2022-12-15T21:53:34.826Z,11.1
2022-12-15T21:56:07.945Z,11.2
2022-12-15T21:58:39.547Z,11.2
2022-12-15T22:01:10.861Z,11.3
2022-12-15T22:03:42.341Z,11.4
2022-12-15T22:06:14.731Z,11.4
2022-12-15T22:08:46.104Z,11.4
2022-12-15T22:11:17.901Z,11.5
2022-12-15T22:13:52.547Z,11.6
2022-12-15T22:16:24.069Z,11.5
2022-12-15T22:18:56.303Z,11.6
2022-12-15T22:21:27.500Z,11.6
2022-12-15T22:24:00.454Z,11.7
2022-12-15T22:26:32.074Z,11.8
2022-12-15T22:29:03.660Z,11.8
2022-12-15T22:31:34.985Z,11.8
2022-12-15T22:34:06.200Z,11.8
2022-12-15T22:36:37.826Z,11.8
2022-12-15T22:39:09.024Z,11.9
2022-12-15T22:41:40.230Z,11.8
2022-12-15T22:44:13.881Z,11.9
2022-12-15T22:46:45.571Z,11.9
2022-12-15T22:49:16.993Z,11.9
2022-12-15T22:51:49.149Z,11.9
2022-12-15T22:54:20.204Z,11.9
2022-12-15T22:56:51.772Z,11.9
2022-12-15T22:59:23.356Z,12
2022-12-15T23:01:55.025Z,11.9
2022-12-15T23:04:26.531Z,12
2022-12-15T23:07:00.468Z,11.9
2022-12-15T23:12:31.044Z,11.9
2022-12-15T23:15:19.919Z,12
2022-12-15T23:17:50.580Z,12
2022-12-15T23:20:27.679Z,12.1
2022-12-15T23:23:01.324Z,12.1
2022-12-15T23:25:39.788Z,12.1
2022-12-15T23:28:15.976Z,12.2
2022-12-15T23:30:52.449Z,12.2
2022-12-15T23:33:32.216Z,12.2
2022-12-15T23:36:03.071Z,12.2
2022-12-15T23:38:40.465Z,12.2
2022-12-15T23:41:11.379Z,12.2
2022-12-15T23:43:40.490Z,12.2
2022-12-15T23:46:11.520Z,12.2
2022-12-15T23:48:42.088Z,12.2
2022-12-15T23:51:13.043Z,12.2
2022-12-15T23:53:44.391Z,12.1
2022-12-15T23:56:15.385Z,12.1
2022-12-15T23:58:47.094Z,12.1
